createdAt,value
2019-04-18T00:01:56.783Z,2.90
2019-04-18T00:04:35.536Z,3.07
2019-04-18T00:07:08.756Z,2.70
2019-04-18T00:09:42.948Z,2.63
2019-04-18T00:12:15.291Z,3.40
2019-04-18T00:14:50.114Z,2.90
2019-04-18T00:17:21.083Z,2.93
2019-04-18T00:19:53.599Z,2.63
2019-04-18T00:22:25.426Z,2.93
2019-04-18T00:24:58.131Z,2.83
2019-04-18T00:27:29.093Z,2.67
2019-04-18T00:30:01.436Z,2.97
2019-04-18T00:32:33.939Z,2.80
2019-04-18T00:35:05.305Z,2.63
2019-04-18T00:37:37.879Z,3.27
2019-04-18T00:40:12.248Z,2.40
2019-04-18T00:42:40.989Z,2.97
2019-04-18T00:45:13.304Z,3.50
2019-04-18T00:47:44.863Z,2.47
2019-04-18T00:50:16.199Z,3.00
2019-04-18T00:52:49.969Z,3.20
2019-04-18T00:55:19.679Z,2.70
2019-04-18T00:57:51.034Z,2.37
2019-04-18T02:01:30.530Z,2.97
2019-04-18T02:04:06.106Z,2.87
2019-04-18T02:06:38.117Z,3.37
2019-04-18T02:09:10.808Z,2.73
2019-04-18T02:11:42.707Z,4.23
2019-04-18T02:14:13.971Z,2.70
2019-04-18T02:16:46.172Z,2.70
2019-04-18T02:19:17.054Z,3.20
2019-04-18T02:21:49.012Z,3.23
2019-04-18T02:24:19.554Z,3.67
2019-04-18T02:26:51.038Z,3.17
2019-04-18T02:29:24.383Z,2.83
2019-04-18T02:31:58.949Z,3.43
2019-04-18T02:34:30.111Z,3.03
2019-04-18T02:37:00.996Z,3.73
2019-04-18T02:39:32.923Z,2.83
2019-04-18T02:42:04.186Z,4.20
2019-04-18T02:44:35.342Z,3.37
2019-04-18T02:47:06.187Z,3.30
2019-04-18T02:49:38.059Z,3.07
2019-04-18T02:52:10.159Z,3.20
2019-04-18T02:54:41.187Z,3.27
2019-04-18T02:57:14.655Z,3.00
2019-04-18T02:59:54.289Z,3.10
2019-04-18T03:02:44.528Z,2.73
2019-04-18T03:05:31.736Z,3.40
2019-04-18T03:07:51.826Z,3.90
2019-04-18T03:10:22.140Z,3.50
2019-04-18T03:12:53.520Z,3.70
2019-04-18T03:15:24.363Z,3.67
2019-04-18T03:17:55.507Z,3.00
2019-04-18T03:20:26.408Z,3.73
2019-04-18T03:23:01.578Z,3.60
2019-04-18T03:25:31.167Z,4.00
2019-04-18T03:28:05.383Z,4.13
2019-04-18T03:30:36.906Z,3.50
2019-04-18T03:33:15.686Z,3.97
2019-04-18T03:35:48.400Z,3.83
2019-04-18T03:38:14.378Z,3.37
2019-04-18T03:40:46.140Z,4.10
2019-04-18T03:43:17.299Z,4.23
2019-04-18T03:45:58.919Z,3.73
2019-04-18T03:48:30.667Z,4.60
2019-04-18T03:51:05.534Z,4.20
2019-04-18T03:53:35.689Z,4.10
2019-04-18T03:56:06.621Z,3.57
2019-04-18T03:58:39.135Z,4.50
2019-04-18T04:01:11.935Z,5.23
2019-04-18T04:03:44.062Z,3.83
2019-04-18T04:06:20.725Z,4.50
2019-04-18T04:08:51.637Z,3.90
2019-04-18T04:11:23.867Z,4.60
2019-04-18T04:13:55.310Z,3.77
2019-04-18T04:16:30.768Z,4.03
2019-04-18T04:19:03.569Z,4.53
2019-04-18T04:21:36.247Z,4.60
2019-04-18T04:24:07.568Z,4.80
2019-04-18T04:26:39.539Z,4.47
2019-04-18T04:29:11.123Z,4.70
2019-04-18T04:31:41.738Z,4.10
2019-04-18T04:34:14.261Z,4.70
2019-04-18T04:36:46.215Z,4.90
2019-04-18T04:39:17.520Z,4.20
2019-04-18T04:41:49.400Z,5.00
2019-04-18T04:44:26.863Z,4.33
2019-04-18T04:47:31.616Z,4.03
2019-04-18T04:50:07.121Z,4.23
2019-04-18T04:52:38.674Z,4.27
2019-04-18T04:55:11.507Z,5.23
2019-04-18T04:57:46.995Z,4.50
2019-04-18T05:00:35.554Z,4.67
2019-04-18T05:03:06.538Z,5.10
2019-04-18T05:05:37.089Z,4.17
2019-04-18T05:08:07.958Z,5.53
2019-04-18T05:10:39.422Z,5.70
2019-04-18T05:13:10.908Z,4.67
2019-04-18T05:15:42.087Z,4.97
2019-04-18T05:18:14.030Z,5.00
2019-04-18T05:20:45.219Z,5.00
2019-04-18T05:23:16.608Z,4.00
2019-04-18T05:25:48.415Z,5.80
2019-04-18T05:28:19.264Z,5.60
2019-04-18T05:30:52.876Z,5.33
2019-04-18T05:33:25.022Z,5.00
2019-04-18T05:36:00.929Z,5.77
2019-04-18T05:38:28.742Z,5.60
2019-04-18T05:40:59.603Z,6.63
2019-04-18T05:43:35.113Z,4.97
2019-04-18T05:46:04.748Z,5.30
2019-04-18T05:49:03.935Z,6.00
2019-04-18T05:51:40.358Z,5.80
2019-04-18T05:54:14.849Z,5.70
2019-04-18T05:56:47.657Z,5.93
2019-04-18T05:59:24.882Z,6.03
2019-04-18T06:02:16.734Z,5.77
2019-04-18T06:05:07.876Z,5.73
2019-04-18T06:07:48.240Z,5.47
2019-04-18T06:10:19.906Z,5.83
2019-04-18T06:12:53.384Z,6.20
2019-04-18T06:15:56.557Z,5.93
2019-04-18T06:18:42.561Z,5.70
2019-04-18T06:21:46.601Z,5.53
2019-04-18T06:24:20.231Z,6.10
2019-04-18T06:26:57.615Z,6.50
2019-04-18T06:29:46.522Z,6.03
2019-04-18T06:32:26.075Z,6.00
2019-04-18T06:34:57.443Z,5.37
2019-04-18T06:37:33.880Z,5.87
2019-04-18T06:40:03.301Z,5.23
2019-04-18T06:42:34.887Z,5.40
2019-04-18T06:45:08.638Z,5.53
2019-04-18T06:47:40.574Z,5.47
2019-04-18T06:50:13.018Z,5.53
2019-04-18T06:52:43.869Z,6.10
2019-04-18T06:55:15.586Z,6.07
2019-04-18T06:57:47.314Z,5.60
2019-04-18T07:00:20.985Z,6.20
2019-04-18T07:03:12.387Z,5.97
2019-04-18T07:05:44.489Z,5.93
2019-04-18T07:08:24.838Z,6.63
2019-04-18T07:11:03.561Z,6.53
2019-04-18T07:13:45.736Z,6.67
2019-04-18T07:16:15.959Z,6.07
2019-04-18T07:18:46.988Z,5.90
2019-04-18T07:21:26.759Z,6.03
2019-04-18T07:23:59.962Z,5.60
2019-04-18T07:26:29.397Z,6.27
2019-04-18T07:29:00.684Z,5.27
2019-04-18T07:31:49.809Z,5.63
2019-04-18T07:34:21.097Z,5.40
2019-04-18T07:36:53.140Z,5.90
2019-04-18T07:39:26.450Z,4.57
2019-04-18T07:41:56.802Z,5.30
2019-04-18T07:44:29.252Z,5.53
2019-04-18T07:47:04.155Z,5.07
2019-04-18T07:49:35.174Z,5.60
2019-04-18T07:52:06.891Z,5.17
2019-04-18T07:54:38.744Z,5.57
2019-04-18T07:57:13.322Z,5.30
2019-04-18T07:59:42.659Z,5.87
2019-04-18T08:02:14.155Z,6.27
2019-04-18T08:04:45.043Z,5.90
2019-04-18T08:07:16.035Z,5.37
2019-04-18T08:09:47.496Z,5.03
2019-04-18T08:12:19.412Z,6.07
2019-04-18T08:15:09.675Z,5.60
2019-04-18T08:17:44.900Z,5.00
2019-04-18T08:20:17.755Z,5.43
2019-04-18T08:22:49.164Z,5.30
2019-04-18T08:25:21.802Z,5.80
2019-04-18T08:27:53.741Z,5.37
2019-04-18T08:30:26.772Z,4.77
2019-04-18T08:32:58.359Z,5.33
2019-04-18T08:35:30.232Z,4.93
2019-04-18T08:38:16.655Z,5.13
2019-04-18T08:40:57.603Z,5.87
2019-04-18T08:43:46.182Z,5.57
2019-04-18T08:46:18.551Z,5.27
2019-04-18T08:48:49.736Z,5.13
2019-04-18T08:51:34.461Z,5.13
2019-04-18T08:54:33.560Z,5.37
2019-04-18T08:57:13.098Z,5.67
2019-04-18T08:59:47.344Z,4.70
2019-04-18T09:02:18.305Z,4.67
2019-04-18T09:04:54.294Z,5.00
2019-04-18T09:07:24.106Z,5.40
2019-04-18T09:09:56.107Z,4.90
2019-04-18T09:12:27.431Z,4.80
2019-04-18T09:15:00.730Z,5.17
2019-04-18T09:17:35.155Z,4.50
2019-04-18T09:20:11.342Z,5.23
2019-04-18T09:22:39.436Z,6.03
2019-04-18T09:25:11.594Z,4.87
2019-04-18T09:27:48.089Z,5.07
2019-04-18T09:30:23.935Z,3.87
2019-04-18T09:32:50.405Z,4.60
2019-04-18T09:35:21.507Z,4.33
2019-04-18T09:37:52.911Z,4.37
2019-04-18T09:40:29.216Z,4.40
2019-04-18T09:42:57.926Z,4.50
2019-04-18T09:45:31.225Z,4.40
2019-04-18T09:48:02.302Z,4.33
2019-04-18T09:50:34.047Z,5.00
2019-04-18T09:53:09.544Z,4.97
2019-04-18T09:55:41.103Z,4.63
2019-04-18T09:58:12.511Z,4.77
2019-04-18T10:00:45.731Z,4.80
2019-04-18T10:03:17.436Z,4.13
2019-04-18T10:05:48.678Z,4.07
2019-04-18T10:08:19.471Z,3.47
2019-04-18T10:10:50.319Z,4.10
2019-04-18T10:13:22.366Z,4.80
2019-04-18T10:15:58.375Z,3.73
2019-04-18T10:18:30.494Z,4.57
2019-04-18T10:21:01.107Z,4.20
2019-04-18T10:23:32.524Z,4.20
2019-04-18T10:26:31.231Z,3.97
2019-04-18T10:29:02.054Z,4.03
2019-04-18T10:31:37.699Z,4.27
2019-04-18T10:34:15.244Z,3.87
2019-04-18T10:36:42.877Z,4.20
2019-04-18T10:39:14.019Z,4.10
2019-04-18T10:41:44.811Z,3.73
2019-04-18T10:44:17.138Z,3.60
2019-04-18T10:46:48.723Z,3.80
2019-04-18T10:49:21.181Z,3.53
2019-04-18T10:51:52.811Z,3.73
2019-04-18T10:54:25.311Z,4.30
2019-04-18T10:56:56.143Z,3.37
2019-04-18T10:59:27.977Z,3.20
2019-04-18T11:01:59.503Z,2.90
2019-04-18T11:04:30.327Z,3.13
2019-04-18T11:07:01.692Z,3.00
2019-04-18T11:09:32.866Z,3.83
2019-04-18T11:12:03.975Z,2.77
2019-04-18T11:14:36.143Z,2.90
2019-04-18T11:17:07.027Z,3.03
2019-04-18T11:19:37.963Z,3.33
2019-04-18T11:22:09.214Z,2.97
2019-04-18T11:24:40.468Z,3.00
2019-04-18T11:27:11.762Z,2.50
2019-04-18T11:29:42.852Z,3.60
2019-04-18T11:32:14.071Z,3.00
2019-04-18T11:34:44.836Z,3.03
2019-04-18T11:37:16.029Z,3.00
2019-04-18T11:39:47.991Z,3.27
2019-04-18T11:42:19.967Z,3.40
2019-04-18T11:44:52.119Z,3.20
2019-04-18T11:47:22.982Z,2.80
2019-04-18T11:49:55.053Z,3.70
2019-04-18T11:52:26.139Z,3.60
2019-04-18T11:54:58.014Z,3.40
2019-04-18T11:57:29.612Z,3.50
2019-04-18T12:00:05.689Z,3.20
2019-04-18T12:02:38.316Z,3.40
2019-04-18T12:05:17.503Z,3.83
2019-04-18T12:07:50.411Z,3.50
2019-04-18T12:10:22.642Z,3.67
2019-04-18T12:12:53.930Z,3.13
2019-04-18T12:15:26.102Z,3.30
2019-04-18T12:17:56.890Z,3.00
2019-04-18T12:20:28.150Z,3.37
2019-04-18T12:23:06.042Z,3.07
2019-04-18T12:25:31.919Z,3.20
2019-04-18T12:28:03.010Z,3.37
2019-04-18T12:30:36.667Z,3.10
2019-04-18T12:33:09.629Z,2.90
2019-04-18T12:35:41.626Z,2.90
2019-04-18T12:38:13.028Z,3.40
2019-04-18T12:40:44.689Z,3.50
2019-04-18T12:43:15.888Z,3.13
2019-04-18T12:45:48.099Z,3.20
2019-04-18T12:48:20.064Z,3.17
2019-04-18T12:50:58.515Z,3.27
2019-04-18T12:53:32.749Z,3.07
2019-04-18T12:56:04.087Z,2.90
2019-04-18T12:58:39.020Z,3.07
2019-04-18T13:01:11.699Z,3.20
2019-04-18T13:03:44.687Z,3.63
2019-04-18T13:06:16.145Z,3.40
2019-04-18T13:08:54.202Z,3.77
2019-04-18T13:11:52.831Z,2.87
2019-04-18T13:14:35.616Z,3.77
2019-04-18T13:17:09.938Z,3.47
2019-04-18T13:19:41.039Z,3.57
2019-04-18T13:22:13.011Z,3.07
2019-04-18T13:24:57.735Z,3.50
2019-04-18T13:27:29.939Z,3.40
2019-04-18T13:30:01.656Z,3.20
2019-04-18T13:32:33.465Z,3.13
2019-04-18T13:35:17.670Z,3.63
2019-04-18T13:37:49.099Z,3.00
2019-04-18T13:40:21.775Z,2.90
2019-04-18T13:42:52.258Z,2.80
2019-04-18T13:45:23.179Z,3.07
2019-04-18T13:47:53.723Z,2.67
2019-04-18T13:50:25.553Z,2.90
2019-04-18T13:52:56.911Z,3.20
2019-04-18T13:55:28.851Z,2.70
2019-04-18T13:58:00.420Z,2.80
2019-04-18T14:00:32.619Z,2.33
2019-04-18T14:03:03.811Z,2.93
2019-04-18T14:05:35.836Z,2.60
2019-04-18T14:08:07.076Z,2.70
2019-04-18T14:10:37.731Z,2.90
2019-04-18T14:13:10.009Z,2.73
2019-04-18T14:15:43.912Z,2.70
2019-04-18T14:18:14.575Z,2.67
2019-04-18T14:20:45.854Z,2.70
2019-04-18T14:23:16.736Z,2.30
2019-04-18T14:25:48.341Z,2.93
2019-04-18T14:28:20.132Z,3.17
2019-04-18T14:30:51.846Z,2.90
2019-04-18T14:33:23.927Z,2.63
2019-04-18T14:35:55.334Z,2.97
2019-04-18T14:38:27.020Z,2.80
2019-04-18T14:41:00.263Z,2.40
2019-04-18T14:43:32.182Z,2.90
2019-04-18T14:46:03.518Z,3.03
2019-04-18T14:48:35.997Z,2.63
2019-04-18T14:51:06.537Z,2.97
2019-04-18T14:53:37.445Z,2.73
2019-04-18T14:56:09.227Z,2.70
2019-04-18T14:58:41.404Z,2.57
2019-04-18T15:01:12.839Z,2.43
2019-04-18T15:03:44.272Z,2.27
2019-04-18T15:06:16.051Z,2.23
2019-04-18T15:08:47.642Z,2.20
2019-04-18T15:11:18.834Z,2.10
2019-04-18T15:13:50.358Z,2.40
2019-04-18T15:16:21.472Z,2.20
2019-04-18T15:18:53.198Z,2.57
2019-04-18T15:21:24.554Z,2.40
2019-04-18T15:23:56.702Z,2.20
2019-04-18T15:26:30.262Z,2.73
2019-04-18T15:29:12.080Z,2.30
2019-04-18T15:31:47.858Z,2.90
2019-04-18T15:34:18.391Z,2.87
2019-04-18T15:36:50.388Z,2.43
2019-04-18T15:39:22.026Z,2.30
2019-04-18T15:41:54.347Z,2.20
2019-04-18T15:44:26.432Z,2.77
2019-04-18T15:47:22.158Z,2.70
2019-04-18T15:49:54.512Z,2.17
2019-04-18T15:52:25.735Z,2.60
2019-04-18T15:54:57.802Z,2.60
2019-04-18T15:57:29.687Z,2.33
2019-04-18T16:00:01.152Z,2.50
2019-04-18T16:02:34.976Z,2.50
2019-04-18T16:05:07.362Z,2.60
2019-04-18T16:07:39.176Z,2.83
2019-04-18T16:10:19.039Z,2.70
2019-04-18T16:12:44.642Z,2.47
2019-04-18T16:15:24.365Z,2.80
2019-04-18T16:17:55.719Z,2.70
2019-04-18T16:20:28.307Z,2.20
2019-04-18T16:23:07.175Z,2.57
2019-04-18T16:25:39.441Z,2.67
2019-04-18T16:28:10.324Z,2.80
2019-04-18T16:30:44.392Z,2.73
2019-04-18T16:33:37.792Z,2.83
2019-04-18T16:36:01.993Z,2.70
2019-04-18T16:38:33.184Z,2.30
2019-04-18T16:41:05.712Z,2.90
2019-04-18T16:43:37.679Z,2.50
2019-04-18T16:46:11.816Z,2.93
2019-04-18T16:48:42.940Z,2.87
2019-04-18T16:51:15.244Z,2.80
2019-04-18T16:53:46.441Z,2.63
2019-04-18T16:56:19.285Z,3.23
2019-04-18T16:58:51.681Z,3.17
2019-04-18T17:01:23.380Z,3.23
2019-04-18T17:03:55.416Z,3.20
2019-04-18T17:06:27.567Z,2.97
2019-04-18T17:08:58.335Z,3.00
2019-04-18T17:11:32.139Z,2.97
2019-04-18T17:14:04.014Z,2.73
2019-04-18T17:16:35.247Z,2.77
2019-04-18T17:19:07.472Z,3.35
2019-04-18T17:21:38.258Z,3.50
2019-04-18T17:24:09.152Z,3.30
2019-04-18T17:26:41.768Z,3.57
2019-04-18T17:29:14.353Z,3.87
2019-04-18T17:31:46.103Z,2.83
2019-04-18T17:34:28.188Z,3.40
2019-04-18T17:37:08.334Z,3.30
2019-04-18T17:39:42.865Z,4.58
2019-04-18T17:41:59.820Z,4.17
2019-04-18T17:44:37.851Z,3.73
2019-04-18T17:47:07.468Z,4.03
2019-04-18T17:49:37.115Z,3.53
2019-04-18T17:52:16.878Z,3.80
2019-04-18T17:54:52.399Z,3.27
2019-04-18T17:57:17.181Z,4.07
2019-04-18T17:59:49.690Z,4.60
2019-04-18T18:02:23.031Z,3.07
2019-04-18T18:05:04.010Z,3.83
2019-04-18T18:07:30.135Z,4.40
2019-04-18T18:10:01.295Z,3.40
2019-04-18T18:12:37.959Z,3.57
2019-04-18T18:15:10.389Z,3.07
2019-04-18T18:17:47.252Z,3.17
2019-04-18T18:20:16.913Z,3.97
2019-04-18T18:22:49.348Z,3.73
2019-04-18T18:25:20.712Z,2.80
2019-04-18T18:27:57.101Z,3.57
2019-04-18T18:30:32.748Z,3.00
2019-04-18T18:33:01.294Z,3.17
2019-04-18T18:35:41.300Z,3.50
2019-04-18T18:38:14.092Z,3.50
2019-04-18T18:40:40.103Z,2.80
2019-04-18T18:43:19.425Z,2.93
2019-04-18T18:45:45.991Z,2.60
2019-04-18T18:48:18.863Z,3.23
2019-04-18T18:50:51.996Z,2.97
2019-04-18T18:53:23.646Z,3.53
2019-04-18T18:55:55.747Z,3.43
2019-04-18T18:58:29.917Z,3.17
2019-04-18T19:01:00.407Z,3.07
2019-04-18T19:03:34.528Z,3.33
2019-04-18T19:06:14.869Z,3.00
2019-04-18T19:09:07.241Z,3.40
2019-04-18T19:11:34.015Z,3.43
2019-04-18T19:14:02.872Z,2.87
2019-04-18T19:16:30.370Z,3.63
2019-04-18T19:18:49.167Z,3.63
2019-04-18T19:21:23.037Z,3.50
2019-04-18T19:23:56.049Z,3.03
2019-04-18T19:26:28.014Z,3.87
2019-04-18T19:29:11.587Z,3.43
2019-04-18T19:31:34.335Z,3.10
2019-04-18T19:34:13.820Z,3.60
2019-04-18T19:36:57.306Z,3.30
2019-04-18T19:39:36.133Z,3.17
2019-04-18T19:41:49.647Z,3.90
2019-04-18T19:44:22.963Z,3.60
2019-04-18T19:46:55.366Z,3.10
2019-04-18T19:49:26.268Z,3.10
2019-04-18T19:51:58.054Z,3.97
2019-04-18T19:54:32.674Z,3.87
2019-04-18T19:57:02.360Z,2.70
2019-04-18T19:59:34.403Z,3.80
2019-04-18T20:02:06.542Z,4.03
2019-04-18T20:04:38.771Z,3.53
2019-04-18T20:07:24.619Z,3.73
2019-04-18T20:09:58.268Z,3.17
2019-04-18T20:12:28.883Z,3.33
2019-04-18T20:14:52.224Z,3.43
2019-04-18T20:17:24.470Z,3.53
2019-04-18T20:19:57.592Z,3.47
2019-04-18T20:22:28.750Z,3.40
2019-04-18T20:25:01.627Z,3.53
2019-04-18T20:27:34.463Z,4.17
2019-04-18T20:30:17.145Z,3.23
2019-04-18T20:32:42.306Z,4.30
2019-04-18T20:35:17.130Z,3.73
2019-04-18T20:38:00.037Z,3.40
2019-04-18T20:40:39.208Z,4.00
2019-04-18T20:43:09.928Z,3.80
2019-04-18T20:45:40.798Z,3.80
2019-04-18T20:48:12.363Z,3.83
2019-04-18T20:50:46.104Z,4.70
2019-04-18T20:53:44.494Z,3.40
2019-04-18T20:56:01.821Z,4.50
2019-04-18T20:58:33.134Z,3.57
2019-04-18T21:01:00.582Z,3.93
2019-04-18T21:03:38.654Z,3.93
2019-04-18T21:06:07.329Z,3.73
2019-04-18T21:08:48.457Z,3.53
2019-04-18T21:11:12.219Z,4.00
2019-04-18T21:13:44.211Z,4.20
2019-04-18T21:16:15.599Z,3.57
2019-04-18T21:18:51.462Z,4.10
2019-04-18T21:21:29.153Z,3.70
2019-04-18T21:24:02.458Z,3.53
2019-04-18T21:26:32.107Z,3.37
2019-04-18T21:29:06.639Z,3.60
2019-04-18T21:31:36.699Z,4.40
2019-04-18T21:34:10.639Z,3.93
2019-04-18T21:36:59.463Z,3.50
2019-04-18T21:39:20.153Z,3.83
2019-04-18T21:41:47.843Z,3.47
2019-04-18T21:44:20.996Z,3.93
2019-04-18T21:46:55.343Z,3.47
2019-04-18T21:49:31.010Z,3.33
2019-04-18T21:52:00.317Z,3.60
2019-04-18T21:54:37.870Z,3.70
2019-04-18T21:57:04.646Z,3.93
2019-04-18T21:59:46.311Z,3.40
2019-04-18T22:02:20.543Z,3.30
2019-04-18T22:04:43.642Z,3.80
2019-04-18T22:07:25.144Z,3.57
2019-04-18T22:09:50.280Z,3.80
2019-04-18T22:12:21.829Z,3.57
2019-04-18T22:14:57.366Z,4.20
2019-04-18T22:17:26.895Z,3.80
2019-04-18T22:19:59.573Z,4.00
2019-04-18T22:22:31.788Z,3.63
2019-04-18T22:25:06.052Z,4.00
2019-04-18T22:27:55.960Z,4.27
2019-04-18T22:30:26.681Z,4.23
2019-04-18T22:33:16.242Z,3.57
2019-04-18T22:35:51.143Z,3.30
2019-04-18T22:38:31.031Z,3.40
2019-04-18T22:40:59.931Z,3.83
2019-04-18T22:43:36.073Z,3.67
2019-04-18T22:46:04.651Z,4.07
2019-04-18T22:48:39.833Z,4.57
2019-04-18T22:51:12.186Z,3.90
2019-04-18T22:53:47.916Z,4.33
2019-04-18T22:56:18.157Z,4.10
2019-04-18T22:58:55.264Z,4.50
2019-04-18T23:01:22.457Z,4.63
2019-04-18T23:03:53.807Z,4.37
2019-04-18T23:06:28.774Z,5.23
2019-04-18T23:09:03.196Z,4.70
2019-04-18T23:11:30.731Z,4.97
2019-04-18T23:14:17.047Z,5.07
2019-04-18T23:16:53.054Z,4.67
2019-04-18T23:19:20.911Z,4.67
2019-04-18T23:21:56.563Z,4.83
2019-04-18T23:24:25.611Z,5.07
2019-04-18T23:27:00.111Z,4.83
2019-04-18T23:29:31.912Z,4.90
2019-04-18T23:32:06.190Z,5.20
2019-04-18T23:34:40.139Z,5.30
2019-04-18T23:37:12.146Z,5.10
2019-04-18T23:40:00.425Z,4.73
2019-04-18T23:42:39.031Z,4.83
2019-04-18T23:45:07.599Z,4.33
2019-04-18T23:47:44.507Z,4.33
2019-04-18T23:50:13.734Z,4.67
2019-04-18T23:52:45.172Z,4.73
2019-04-18T23:55:21.159Z,5.10
2019-04-18T23:57:59.534Z,5.17
